Time;durP1;ratioP1;P1;durP2;ratioP2;P2;SDS_P1;SDS_P2;PMS_P1;PMS_P2;Temp;Humidity;BMP_temperature;BMP_pressure;BME280_temperature;BME280_humidity;BME280_pressure;Samples;Min_cycle;Max_cycle;Signal;HPM_P1;HPM_P2
2022/10/30 00:01:19;;;;;;;33.60;3.47;;;;;;;12.23;100.00;99098.97;4963576;28;20482;-92
2022/10/30 00:03:47;;;;;;;24.48;3.03;;;;;;;12.25;100.00;99102.25;4960037;28;20084;-93
2022/10/30 00:06:15;;;;;;;23.65;3.38;;;;;;;12.28;100.00;99104.50;4979093;28;20037;-92
2022/10/30 00:08:43;;;;;;;21.58;3.03;;;;;;;12.31;100.00;99106.78;4950442;28;20034;-92
2022/10/30 00:11:12;;;;;;;20.55;2.63;;;;;;;12.35;100.00;99091.34;4963630;28;20038;-93
2022/10/30 00:13:43;;;;;;;23.08;3.45;;;;;;;12.37;100.00;99081.38;4975392;28;20500;-92
2022/10/30 00:16:13;;;;;;;26.73;3.80;;;;;;;12.40;100.00;99081.00;4958135;28;20124;-93
2022/10/30 00:18:42;;;;;;;28.48;4.00;;;;;;;12.43;100.00;99070.00;4979236;28;20044;-93
2022/10/30 00:21:12;;;;;;;28.58;3.03;;;;;;;12.49;100.00;99084.31;4980840;28;20038;-92
2022/10/30 00:23:49;;;;;;;27.52;3.13;;;;;;;12.50;100.00;99084.13;4983141;28;20123;-92
2022/10/30 00:26:19;;;;;;;25.30;4.20;;;;;;;12.53;100.00;99078.44;4965929;28;20034;-92
2022/10/30 00:28:54;;;;;;;32.00;3.83;;;;;;;12.54;100.00;99076.63;4998230;28;20045;-92
2022/10/30 00:31:24;;;;;;;25.58;3.38;;;;;;;12.54;100.00;99073.97;4980788;28;20041;-92
2022/10/30 00:33:53;;;;;;;24.48;3.17;;;;;;;12.53;100.00;99075.00;4984254;28;20049;-92
2022/10/30 00:36:23;;;;;;;26.80;3.80;;;;;;;12.51;100.00;99080.47;4972397;28;20041;-93
2022/10/30 00:38:53;;;;;;;26.70;3.75;;;;;;;12.49;100.00;99074.53;4986338;28;20597;-93
2022/10/30 00:41:24;;;;;;;20.10;3.25;;;;;;;12.49;100.00;99074.53;5005395;28;20045;-93
2022/10/30 00:43:52;;;;;;;20.30;3.33;;;;;;;12.42;100.00;99078.97;4978745;28;20153;-92
2022/10/30 00:46:27;;;;;;;19.67;3.30;;;;;;;12.38;100.00;99075.06;4952633;28;20062;-92
2022/10/30 00:48:59;;;;;;;22.20;3.50;;;;;;;12.30;100.00;99075.19;5000937;28;20037;-93
2022/10/30 00:51:32;;;;;;;19.88;2.90;;;;;;;12.28;100.00;99078.00;4999746;28;20511;-93
2022/10/30 00:54:05;;;;;;;18.42;2.70;;;;;;;12.26;100.00;99074.75;4999412;28;20486;-93
2022/10/30 00:56:35;;;;;;;16.25;2.50;;;;;;;12.18;100.00;99054.50;4983100;28;20026;-93
2022/10/30 00:59:08;;;;;;;17.30;2.60;;;;;;;12.18;100.00;99061.63;4967513;28;20483;-92
2022/10/30 01:01:40;;;;;;;13.57;2.35;;;;;;;12.17;100.00;99076.69;4970300;28;20033;-92
2022/10/30 01:04:11;;;;;;;18.67;3.13;;;;;;;12.17;100.00;99074.03;4974257;28;20144;-92
2022/10/30 01:06:47;;;;;;;13.52;2.22;;;;;;;12.12;100.00;99058.72;4972044;28;20030;-93
2022/10/30 01:09:16;;;;;;;15.32;2.03;;;;;;;12.09;100.00;99045.84;4983347;28;20037;-93
2022/10/30 01:11:45;;;;;;;16.35;2.40;;;;;;;12.07;100.00;99037.25;4998876;28;20041;-93
2022/10/30 01:14:17;;;;;;;11.15;1.88;;;;;;;12.07;100.00;99044.38;4979296;28;20072;-93
2022/10/30 01:17:04;;;;;;;12.57;1.92;;;;;;;12.05;100.00;99044.56;5008773;28;20026;-92
2022/10/30 01:19:39;;;;;;;10.70;1.92;;;;;;;12.02;100.00;99042.31;4982016;28;20034;-92
2022/10/30 01:22:35;;;;;;;10.73;1.50;;;;;;;11.91;100.00;99048.91;4985491;28;20042;-93
2022/10/30 01:25:29;;;;;;;8.13;1.60;;;;;;;11.93;100.00;99041.59;4977563;28;20041;-93
2022/10/30 01:28:40;;;;;;;14.95;2.28;;;;;;;11.89;100.00;99042.97;4969812;28;20049;-93
2022/10/30 01:31:28;;;;;;;;;;;;;;;11.78;100.00;99042.44;4985174;28;20037;-92
2022/10/30 01:34:18;;;;;;;14.40;1.45;;;;;;;11.82;100.00;99034.97;4965709;28;20063;-93
2022/10/30 01:37:00;;;;;;;8.73;1.75;;;;;;;11.81;100.00;99043.09;4978160;28;20406;-92
2022/10/30 01:39:35;;;;;;;9.40;1.80;;;;;;;11.80;100.00;99044.94;4979473;28;20466;-92
2022/10/30 01:42:50;;;;;;;13.50;2.63;;;;;;;11.74;100.00;99050.94;4977262;28;20120;-92
2022/10/30 01:45:30;;;;;;;17.33;2.35;;;;;;;11.74;100.00;99048.31;4975414;28;20797;-92
2022/10/30 01:48:18;;;;;;;14.35;1.92;;;;;;;11.81;100.00;99046.56;4966564;28;20128;-92
2022/10/30 01:50:52;;;;;;;15.27;1.80;;;;;;;11.80;100.00;99042.28;4974753;28;20068;-92
2022/10/30 01:53:58;;;;;;;17.75;2.60;;;;;;;11.82;100.00;99048.19;4963130;28;20479;-92
2022/10/30 01:56:46;;;;;;;17.45;2.13;;;;;;;11.85;100.00;99045.19;4974773;28;20061;-93
2022/10/30 01:59:36;;;;;;;15.38;2.38;;;;;;;11.89;100.00;99048.28;4987514;28;20118;-94
2022/10/30 02:02:08;;;;;;;19.23;2.65;;;;;;;11.91;100.00;99041.78;4966252;28;20088;-94
2022/10/30 02:04:37;;;;;;;16.48;2.35;;;;;;;11.91;100.00;99033.03;4978648;28;20502;-94
2022/10/30 02:07:05;;;;;;;23.65;3.22;;;;;;;11.98;100.00;99027.78;4965283;28;20033;-94
2022/10/30 02:09:40;;;;;;;21.58;3.45;;;;;;;12.02;100.00;99031.72;4978217;28;20028;-93
2022/10/30 02:12:10;;;;;;;18.38;3.25;;;;;;;12.07;100.00;99026.66;4971403;28;20084;-93
2022/10/30 02:14:45;;;;;;;23.42;3.08;;;;;;;12.17;100.00;99023.72;4975008;28;20042;-94
2022/10/30 02:17:15;;;;;;;22.73;3.70;;;;;;;12.23;100.00;99025.59;4990615;28;20026;-92
2022/10/30 02:19:45;;;;;;;25.52;3.55;;;;;;;12.25;100.00;99020.94;4978889;28;20585;-91
2022/10/30 02:22:16;;;;;;;29.55;3.97;;;;;;;12.28;100.00;99017.91;4978630;28;20109;-91
2022/10/30 02:24:45;;;;;;;22.60;3.35;;;;;;;12.32;100.00;99012.22;4979822;28;20562;-92
2022/10/30 02:27:13;;;;;;;18.23;2.88;;;;;;;12.30;100.00;99011.59;4969063;28;20025;-92
2022/10/30 02:29:40;;;;;;;20.55;3.17;;;;;;;12.30;100.00;99008.94;4964781;28;20036;-92
2022/10/30 02:32:10;;;;;;;23.98;3.67;;;;;;;12.33;100.00;99001.44;4980651;28;20038;-94
2022/10/30 02:34:42;;;;;;;25.77;3.97;;;;;;;12.29;100.00;99016.09;4999977;28;20083;-93
2022/10/30 02:37:13;;;;;;;18.15;2.97;;;;;;;12.28;100.00;99004.66;4972317;28;20030;-92
2022/10/30 02:39:43;;;;;;;20.95;3.70;;;;;;;12.32;100.00;99009.59;4966207;28;20033;-93
2022/10/30 02:42:13;;;;;;;27.13;4.13;;;;;;;12.34;100.00;99011.00;4962966;28;20041;-92
2022/10/30 02:44:43;;;;;;;32.30;3.75;;;;;;;12.36;100.00;99008.22;4994729;28;20037;-92
2022/10/30 02:47:11;;;;;;;23.45;4.07;;;;;;;12.33;100.00;99014.69;4992434;28;20433;-93
2022/10/30 02:49:39;;;;;;;21.30;3.40;;;;;;;12.38;100.00;99025.53;4978266;28;20060;-94
2022/10/30 02:52:09;;;;;;;18.27;2.65;;;;;;;12.41;100.00;99013.72;4990555;28;20041;-93
2022/10/30 02:54:39;;;;;;;23.90;3.58;;;;;;;12.45;100.00;99017.66;4978261;28;20034;-93
2022/10/30 02:57:09;;;;;;;14.77;2.03;;;;;;;12.47;100.00;99005.00;4964832;28;20403;-93
2022/10/30 02:59:38;;;;;;;25.15;3.05;;;;;;;12.46;100.00;99006.03;4996321;28;20132;-93
2022/10/30 03:02:07;;;;;;;18.73;2.80;;;;;;;12.47;100.00;99005.00;4956896;28;20034;-93
2022/10/30 03:04:36;;;;;;;20.90;2.65;;;;;;;12.50;100.00;99007.28;4979819;28;20046;-93
2022/10/30 03:07:04;;;;;;;20.20;3.20;;;;;;;12.46;100.00;99011.31;4979926;28;20034;-93
2022/10/30 03:09:34;;;;;;;22.35;3.88;;;;;;;12.47;100.00;99014.81;4965239;28;20552;-93
2022/10/30 03:12:04;;;;;;;20.33;3.80;;;;;;;12.45;100.00;99009.69;4980621;28;20429;-93
2022/10/30 03:14:31;;;;;;;20.92;3.58;;;;;;;12.40;100.00;99009.44;4965304;28;20045;-93
2022/10/30 03:16:59;;;;;;;23.50;3.33;;;;;;;12.38;100.00;99008.81;4996484;28;20034;-93
2022/10/30 03:19:27;;;;;;;17.55;2.90;;;;;;;12.37;100.00;99013.31;4972923;28;20034;-95
2022/10/30 03:21:57;;;;;;;23.35;3.13;;;;;;;12.38;100.00;99019.41;4974354;28;20479;-93
2022/10/30 03:24:26;;;;;;;14.30;2.90;;;;;;;12.37;100.00;99007.19;4963245;28;20040;-93
2022/10/30 03:26:54;;;;;;;20.70;4.13;;;;;;;12.34;100.00;99026.13;4961822;28;20753;-92
2022/10/30 03:29:24;;;;;;;14.07;2.40;;;;;;;12.37;100.00;99029.22;4960454;28;20038;-92
2022/10/30 03:31:54;;;;;;;17.45;2.35;;;;;;;12.34;100.00;99026.13;4958109;28;20046;-92
2022/10/30 03:34:23;;;;;;;16.58;2.47;;;;;;;12.33;100.00;99019.16;4978019;28;20042;-93
2022/10/30 03:36:51;;;;;;;21.23;4.32;;;;;;;12.32;100.00;99018.34;4980614;28;20553;-93
2022/10/30 03:39:20;;;;;;;21.73;3.45;;;;;;;12.27;100.00;99010.16;4963715;28;20038;-94
2022/10/30 03:41:50;;;;;;;18.70;2.83;;;;;;;12.24;100.00;99021.13;4961750;28;20077;-93
2022/10/30 03:44:20;;;;;;;16.08;3.53;;;;;;;12.23;100.00;99012.34;4961141;28;20037;-93
2022/10/30 03:46:49;;;;;;;19.85;2.50;;;;;;;12.22;100.00;99023.97;4962119;28;20054;-93
2022/10/30 03:49:29;;;;;;;19.08;2.85;;;;;;;12.20;100.00;99028.63;4966552;28;20121;-94
2022/10/30 03:51:59;;;;;;;17.15;2.92;;;;;;;12.21;100.00;99022.34;5000091;28;20045;-93
2022/10/30 03:54:26;;;;;;;21.42;3.10;;;;;;;12.17;100.00;99021.06;5000148;28;20041;-92
2022/10/30 03:56:54;;;;;;;23.00;3.33;;;;;;;12.18;100.00;99021.91;4996506;28;20033;-92
2022/10/30 03:59:25;;;;;;;22.85;3.13;;;;;;;12.17;100.00;99018.41;4994861;28;20468;-93
2022/10/30 04:02:14;;;;;;;19.80;3.30;;;;;;;12.16;100.00;99006.19;4997282;28;20542;-92
2022/10/30 04:04:42;;;;;;;20.98;2.90;;;;;;;12.17;100.00;99010.47;4982934;28;20036;-93
2022/10/30 04:07:11;;;;;;;17.08;2.22;;;;;;;12.18;100.00;99009.47;4988176;28;20060;-92
2022/10/30 04:09:40;;;;;;;21.77;2.88;;;;;;;12.16;100.00;99006.19;4980836;28;20042;-92
2022/10/30 04:12:06;;;;;;;17.63;3.42;;;;;;;12.19;100.00;99003.16;4988895;28;20044;-92
2022/10/30 04:14:35;;;;;;;23.02;3.28;;;;;;;12.15;100.00;98989.47;4999239;28;20041;-92
2022/10/30 04:17:05;;;;;;;26.30;3.20;;;;;;;12.17;100.00;98989.28;5011514;28;20041;-94
2022/10/30 04:19:33;;;;;;;21.33;3.67;;;;;;;12.13;100.00;98996.81;4994797;28;20042;-93
2022/10/30 04:22:01;;;;;;;20.65;3.70;;;;;;;12.10;100.00;98996.38;4999140;28;20048;-91
2022/10/30 04:24:30;;;;;;;29.58;3.67;;;;;;;12.07;100.00;98984.28;4978749;28;20045;-93
2022/10/30 04:26:58;;;;;;;23.80;3.88;;;;;;;12.06;100.00;98993.22;4999339;28;20359;-93
2022/10/30 04:29:27;;;;;;;17.52;3.13;;;;;;;12.03;100.00;98990.97;5010244;28;20136;-94
2022/10/30 04:31:53;;;;;;;24.23;3.40;;;;;;;12.01;100.00;98988.50;4997975;28;20079;-93
2022/10/30 04:34:22;;;;;;;25.95;3.92;;;;;;;11.96;100.00;98988.25;4993060;28;20037;-93
2022/10/30 04:36:50;;;;;;;25.10;3.08;;;;;;;11.97;100.00;98983.78;4978182;28;20033;-93
2022/10/30 04:39:19;;;;;;;23.67;4.25;;;;;;;11.95;100.00;98976.03;4983298;28;20033;-93
2022/10/30 04:41:50;;;;;;;22.90;3.08;;;;;;;11.91;100.00;98974.78;4999317;28;20561;-92
2022/10/30 04:44:25;;;;;;;25.17;3.63;;;;;;;11.89;100.00;98985.56;4999104;28;20478;-93
2022/10/30 04:46:55;;;;;;;24.92;3.63;;;;;;;11.90;100.00;98989.00;4998275;28;20086;-93
2022/10/30 04:49:25;;;;;;;21.92;2.53;;;;;;;11.89;100.00;98996.16;4976265;28;20478;-93
2022/10/30 04:51:53;;;;;;;25.05;2.97;;;;;;;11.91;100.00;98988.81;4996847;28;20033;-91
2022/10/30 04:54:22;;;;;;;22.70;2.40;;;;;;;11.86;100.00;98999.19;4998614;28;20037;-91
2022/10/30 04:56:51;;;;;;;19.67;3.00;;;;;;;11.84;100.00;98998.53;4981361;28;20470;-92
2022/10/30 04:59:18;;;;;;;19.52;2.90;;;;;;;11.82;100.00;98999.75;4991649;28;20057;-93
2022/10/30 05:01:48;;;;;;;15.98;2.35;;;;;;;11.83;100.00;99001.38;4996244;28;20119;-91
2022/10/30 05:04:17;;;;;;;9.70;1.35;;;;;;;11.81;100.00;98988.31;4982009;28;20040;-91
2022/10/30 05:06:46;;;;;;;16.05;2.30;;;;;;;11.77;100.00;98992.34;5012838;28;20414;-91
2022/10/30 05:09:17;;;;;;;16.27;2.00;;;;;;;11.76;100.00;98985.41;4984495;28;20037;-90
2022/10/30 05:11:45;;;;;;;17.00;1.95;;;;;;;11.79;100.00;98990.34;5016591;28;20108;-92
2022/10/30 05:14:14;;;;;;;14.85;2.42;;;;;;;11.82;100.00;98989.97;5002944;28;20051;-91
2022/10/30 05:16:43;;;;;;;19.40;2.03;;;;;;;11.84;100.00;98995.06;4986018;28;20040;-92
2022/10/30 05:19:13;;;;;;;13.27;1.65;;;;;;;11.88;100.00;98996.34;5000356;28;20044;-92
2022/10/30 05:21:51;;;;;;;12.48;1.52;;;;;;;11.88;100.00;99001.63;5010677;28;20034;-92
2022/10/30 05:24:19;;;;;;;15.85;2.40;;;;;;;11.86;100.00;99007.13;4999089;28;20044;-91
2022/10/30 05:26:46;;;;;;;18.05;3.22;;;;;;;11.82;100.00;99002.41;5001707;28;20029;-92
2022/10/30 05:29:15;;;;;;;11.05;1.70;;;;;;;11.76;100.00;99006.59;5014241;28;20033;-93
2022/10/30 05:31:45;;;;;;;15.85;1.98;;;;;;;11.72;100.00;99005.34;4993351;28;20034;-93
2022/10/30 05:34:15;;;;;;;15.60;3.28;;;;;;;11.67;100.00;98997.97;5005501;28;20109;-93
2022/10/30 05:36:44;;;;;;;12.77;2.47;;;;;;;11.67;100.00;99005.91;4977624;28;20033;-92
2022/10/30 05:39:14;;;;;;;13.18;2.10;;;;;;;11.66;100.00;99005.06;4999179;28;20072;-92
2022/10/30 05:41:45;;;;;;;9.60;1.83;;;;;;;11.64;100.00;99004.44;4976147;28;20038;-91
2022/10/30 05:44:14;;;;;;;13.65;1.77;;;;;;;11.61;100.00;98998.72;5014250;28;20048;-90
2022/10/30 05:46:44;;;;;;;11.45;2.08;;;;;;;11.58;100.00;99009.69;5017574;28;20111;-93
2022/10/30 05:49:22;;;;;;;15.05;2.13;;;;;;;11.55;100.00;99013.50;5012950;28;20537;-93
2022/10/30 05:51:52;;;;;;;17.23;2.05;;;;;;;11.53;100.00;99013.69;4999110;28;20041;-92
2022/10/30 05:54:22;;;;;;;13.57;1.30;;;;;;;11.41;100.00;99005.41;4971822;28;20149;-93
2022/10/30 05:57:05;;;;;;;7.07;1.10;;;;;;;11.31;100.00;98994.28;4997128;28;20100;-94
2022/10/30 05:59:35;;;;;;;5.45;0.63;;;;;;;11.14;100.00;98988.41;5005977;28;20128;-94
2022/10/30 06:02:05;;;;;;;6.53;1.13;;;;;;;11.07;100.00;98976.94;4983913;28;20577;-93
2022/10/30 06:04:35;;;;;;;7.50;1.13;;;;;;;10.97;100.00;98978.03;5001697;28;20179;-94
2022/10/30 06:07:09;;;;;;;4.93;1.05;;;;;;;10.93;100.00;98979.38;4983724;28;20040;-91
2022/10/30 06:09:37;;;;;;;11.18;1.25;;;;;;;10.88;100.00;98985.22;5000933;28;20083;-91
2022/10/30 06:12:39;;;;;;;13.65;0.70;;;;;;;10.85;100.00;98988.22;4944137;28;20043;-90
2022/10/30 06:15:32;;;;;;;7.97;0.80;;;;;;;10.83;100.00;98978.84;4972401;28;20052;-91
2022/10/30 06:18:00;;;;;;;6.07;0.85;;;;;;;10.83;100.00;98986.78;5009041;28;20073;-89
2022/10/30 06:20:39;;;;;;;7.40;0.68;;;;;;;10.77;100.00;98969.81;5000870;28;20044;-89
2022/10/30 06:23:33;;;;;;;5.13;0.85;;;;;;;10.75;100.00;98972.63;4975609;28;20045;-91
2022/10/30 06:26:05;;;;;;;4.13;0.60;;;;;;;10.72;100.00;98972.19;4980503;28;20030;-92
2022/10/30 06:28:43;;;;;;;5.45;0.60;;;;;;;10.73;100.00;98974.66;5001117;28;20048;-92
2022/10/30 06:31:13;;;;;;;6.05;0.80;;;;;;;10.71;100.00;98981.94;4966831;28;20033;-93
2022/10/30 06:33:42;;;;;;;4.53;0.60;;;;;;;10.71;100.00;98962.63;5006434;28;20053;-93
2022/10/30 06:36:11;;;;;;;4.38;0.77;;;;;;;10.64;100.00;98971.28;4982175;28;20029;-93
2022/10/30 06:38:40;;;;;;;4.53;0.70;;;;;;;10.59;100.00;98965.69;4941369;28;20078;-93
2022/10/30 06:41:09;;;;;;;5.07;0.60;;;;;;;10.55;100.00;98959.16;4999497;28;20486;-93
2022/10/30 06:44:11;;;;;;;9.60;0.80;;;;;;;10.47;100.00;98960.06;4957870;28;20074;-93
2022/10/30 06:46:41;;;;;;;5.10;0.88;;;;;;;10.46;100.00;98958.41;4975815;28;20041;-92
2022/10/30 06:49:08;;;;;;;5.32;0.85;;;;;;;10.43;100.00;98962.19;4992901;28;20038;-93
2022/10/30 06:51:37;;;;;;;6.35;0.70;;;;;;;10.46;100.00;98954.91;4980391;28;20066;-93
2022/10/30 06:54:06;;;;;;;6.20;0.70;;;;;;;10.46;100.00;98952.28;4981905;28;20042;-93
2022/10/30 06:56:39;;;;;;;5.28;0.90;;;;;;;10.44;100.00;98960.38;4982278;28;20038;-93
2022/10/30 06:59:16;;;;;;;5.57;0.75;;;;;;;10.47;100.00;98967.16;4979046;28;20030;-93
2022/10/30 07:01:49;;;;;;;5.22;0.80;;;;;;;10.44;100.00;98957.75;4965644;28;20526;-93
2022/10/30 07:04:23;;;;;;;5.25;0.63;;;;;;;10.39;100.00;98950.34;4996733;28;20096;-93
2022/10/30 07:06:51;;;;;;;6.25;0.88;;;;;;;10.35;100.00;98950.91;4992133;28;20038;-91
2022/10/30 07:09:21;;;;;;;8.43;0.70;;;;;;;10.34;100.00;98963.28;4972869;28;20033;-92
2022/10/30 07:11:50;;;;;;;11.95;1.17;;;;;;;10.38;100.00;98966.38;4964227;28;20044;-92
2022/10/30 07:14:27;;;;;;;13.02;1.65;;;;;;;10.46;100.00;98950.50;4978259;28;20073;-92
2022/10/30 07:17:12;;;;;;;10.82;1.27;;;;;;;10.54;100.00;98963.59;4959910;28;20040;-92
2022/10/30 07:19:45;;;;;;;13.30;1.42;;;;;;;10.65;100.00;98972.09;4996437;28;20041;-92
2022/10/30 07:22:14;;;;;;;12.25;1.48;;;;;;;10.68;100.00;98961.16;4977121;28;20033;-91
2022/10/30 07:24:46;;;;;;;12.30;1.58;;;;;;;10.68;100.00;98961.16;4980913;28;20041;-93
2022/10/30 07:27:40;;;;;;;11.57;1.67;;;;;;;10.67;100.00;98973.53;5012054;28;20769;-91
2022/10/30 07:30:29;;;;;;;14.82;1.65;;;;;;;10.66;100.00;98960.50;4973740;28;20072;-91
2022/10/30 07:33:20;;;;;;;14.20;1.40;;;;;;;10.66;100.00;98963.16;4982804;28;20038;-91
2022/10/30 07:36:03;;;;;;;13.80;1.77;;;;;;;10.68;100.00;98969.09;4962897;28;20034;-91
2022/10/30 07:39:07;;;;;;;13.65;2.35;;;;;;;10.68;100.00;98955.88;4925833;29;20686;-91
2022/10/30 07:41:39;;;;;;;18.52;1.85;;;;;;;10.67;100.00;98948.97;4993429;28;20042;-91
2022/10/30 07:44:26;;;;;;;12.95;1.67;;;;;;;10.70;100.00;98956.53;4985675;28;20081;-91
2022/10/30 07:47:29;;;;;;;15.57;1.95;;;;;;;10.69;100.00;98956.72;4979160;28;20478;-91
2022/10/30 07:50:28;;;;;;;18.00;2.53;;;;;;;10.69;100.00;98970.72;4945946;28;20553;-92
2022/10/30 07:52:57;;;;;;;12.80;1.58;;;;;;;10.70;100.00;98967.09;4996780;28;20136;-91
2022/10/30 07:55:28;;;;;;;10.45;2.25;;;;;;;10.71;100.00;98973.19;4983446;28;20057;-92
2022/10/30 07:58:17;;;;;;;15.10;1.95;;;;;;;10.72;100.00;98964.28;4963322;28;20053;-91
2022/10/30 08:01:05;;;;;;;19.27;2.45;;;;;;;10.73;100.00;98960.63;4995475;28;20044;-92
2022/10/30 08:03:35;;;;;;;11.07;1.35;;;;;;;10.77;100.00;98970.63;4982371;28;20045;-91
2022/10/30 08:06:25;;;;;;;18.75;2.15;;;;;;;10.77;100.00;98969.81;4990394;28;20042;-91
2022/10/30 08:08:54;;;;;;;15.98;1.98;;;;;;;10.82;100.00;98970.09;5028187;28;20029;-92
2022/10/30 08:11:27;;;;;;;15.38;2.00;;;;;;;10.82;100.00;98970.09;4993583;28;20052;-91
2022/10/30 08:13:57;;;;;;;16.90;1.55;;;;;;;10.88;100.00;98969.34;4999972;28;20045;-91
2022/10/30 08:16:25;;;;;;;15.98;1.80;;;;;;;10.90;100.00;98964.72;4979657;28;20033;-91
2022/10/30 08:18:53;;;;;;;14.00;1.77;;;;;;;10.92;100.00;98959.25;4995071;28;20030;-92
2022/10/30 08:21:25;;;;;;;16.48;2.53;;;;;;;10.95;100.00;98958.03;4998050;28;20478;-91
2022/10/30 08:24:05;;;;;;;12.55;1.50;;;;;;;10.97;100.00;98956.06;4992698;28;20069;-92
2022/10/30 08:26:35;;;;;;;8.18;1.50;;;;;;;11.04;100.00;98949.00;4988816;28;20076;-91
2022/10/30 08:29:03;;;;;;;13.23;1.67;;;;;;;11.02;100.00;98954.47;4982725;28;20144;-91
2022/10/30 08:31:32;;;;;;;11.13;1.48;;;;;;;11.11;100.00;98960.50;4994989;28;20491;-91
2022/10/30 08:33:59;;;;;;;12.50;1.67;;;;;;;11.15;100.00;98953.00;5004569;28;20063;-89
2022/10/30 08:36:52;;;;;;;10.32;1.60;;;;;;;11.19;100.00;98958.75;4984737;28;20030;-91
2022/10/30 08:39:20;;;;;;;7.90;1.52;;;;;;;11.22;100.00;98956.56;4987095;28;20045;-91
2022/10/30 08:41:58;;;;;;;15.43;1.63;;;;;;;11.25;100.00;98956.19;4998722;28;20482;-92
2022/10/30 08:44:30;;;;;;;18.60;2.42;;;;;;;11.30;100.00;98971.50;4977094;28;20397;-92
2022/10/30 08:47:14;;;;;;;7.97;1.77;;;;;;;11.39;100.00;98966.91;5001891;28;20041;-92
2022/10/30 08:49:42;;;;;;;12.43;1.20;;;;;;;11.46;100.00;98978.41;5001089;28;20091;-91
2022/10/30 08:52:12;;;;;;;11.95;1.27;;;;;;;11.54;100.00;98982.75;4999073;28;20069;-91
2022/10/30 08:54:40;;;;;;;7.78;0.98;;;;;;;11.61;100.00;98985.47;4981692;28;20482;-92
2022/10/30 08:57:08;;;;;;;8.48;1.20;;;;;;;11.65;100.00;98979.63;5014610;28;20049;-92
2022/10/30 08:59:36;;;;;;;15.50;1.83;;;;;;;11.71;100.00;98978.03;5027599;28;20035;-92
2022/10/30 09:02:04;;;;;;;15.13;2.67;;;;;;;11.78;100.00;98978.91;4977852;28;20098;-84
2022/10/30 09:04:37;;;;;;;16.27;2.13;;;;;;;11.82;100.00;98973.28;5000434;28;20101;-91
2022/10/30 09:07:24;;;;;;;15.35;1.48;;;;;;;11.86;100.00;98974.53;5012276;28;20029;-92
2022/10/30 09:10:01;;;;;;;12.90;1.70;;;;;;;11.90;100.00;98978.41;5010893;28;20130;-92
2022/10/30 09:12:33;;;;;;;13.77;2.03;;;;;;;11.94;100.00;98979.69;5000231;28;20088;-90
2022/10/30 09:15:01;;;;;;;17.77;2.25;;;;;;;11.96;100.00;98969.72;4980541;28;20029;-92
2022/10/30 09:17:31;;;;;;;12.38;1.50;;;;;;;11.97;100.00;98971.38;4984926;28;20398;-92
2022/10/30 09:19:59;;;;;;;24.05;2.50;;;;;;;12.00;100.00;98983.41;5013344;28;20030;-92
2022/10/30 09:22:40;;;;;;;13.27;1.85;;;;;;;12.06;100.00;98974.69;4984451;28;20045;-91
2022/10/30 09:25:09;;;;;;;11.88;2.17;;;;;;;12.04;100.00;98982.84;4995584;28;20037;-91
2022/10/30 09:27:50;;;;;;;19.40;2.40;;;;;;;12.02;100.00;98968.16;5000779;28;20033;-92
2022/10/30 09:30:18;;;;;;;10.48;1.90;;;;;;;11.97;100.00;98968.72;4997056;28;20052;-91
2022/10/30 09:32:57;;;;;;;13.32;2.00;;;;;;;11.99;100.00;98981.78;5024205;28;20068;-92
2022/10/30 09:35:38;;;;;;;12.27;2.50;;;;;;;11.96;100.00;98984.81;4997627;28;20090;-92
2022/10/30 09:38:09;;;;;;;17.02;2.17;;;;;;;12.02;100.00;98976.09;5001304;28;20037;-91
2022/10/30 09:40:53;;;;;;;12.02;2.70;;;;;;;12.07;100.00;98978.19;4996067;28;20034;-92
2022/10/30 09:43:26;;;;;;;7.28;1.63;;;;;;;12.06;100.00;98981.81;4986546;28;20033;-91
2022/10/30 09:46:11;;;;;;;15.90;2.13;;;;;;;12.11;100.00;98977.63;4986291;28;20496;-91
2022/10/30 09:48:57;;;;;;;14.50;2.28;;;;;;;12.11;100.00;98985.56;4986735;28;20051;-91
2022/10/30 09:51:40;;;;;;;14.68;1.98;;;;;;;12.13;100.00;98980.91;4996251;28;20050;-90
2022/10/30 09:54:34;;;;;;;9.90;1.58;;;;;;;12.18;100.00;98968.91;4986247;28;20037;-90
2022/10/30 09:57:09;;;;;;;12.00;1.40;;;;;;;12.19;100.00;98973.19;4980010;28;20034;-91
2022/10/30 09:59:51;;;;;;;10.90;1.67;;;;;;;12.16;100.00;98974.41;4976751;28;20046;-91
2022/10/30 10:02:36;;;;;;;14.45;1.50;;;;;;;12.10;100.00;98978.66;4997713;28;20092;-90
2022/10/30 10:05:21;;;;;;;10.57;1.80;;;;;;;12.04;100.00;98980.19;4998190;28;20041;-90
2022/10/30 10:08:32;;;;;;;7.90;1.20;;;;;;;11.99;100.00;98981.78;4975883;28;20084;-91
2022/10/30 10:11:25;;;;;;;14.90;1.55;;;;;;;11.98;100.00;98980.94;5017495;28;20427;-89
2022/10/30 10:14:07;;;;;;;10.68;1.67;;;;;;;11.99;100.00;98982.56;5008597;28;20076;-91
2022/10/30 10:16:40;;;;;;;15.38;1.40;;;;;;;12.00;100.00;98986.88;4994088;28;20053;-90
2022/10/30 10:19:19;;;;;;;9.43;1.25;;;;;;;12.03;100.00;98989.16;5012012;28;20033;-91
2022/10/30 10:21:56;;;;;;;8.80;1.35;;;;;;;12.07;100.00;98989.56;4974358;28;20537;-90
2022/10/30 10:24:39;;;;;;;12.07;2.28;;;;;;;12.12;100.00;99005.75;4994072;28;20064;-92
2022/10/30 10:27:33;;;;;;;13.25;2.22;;;;;;;12.17;100.00;98999.88;4993715;28;20096;-90
2022/10/30 10:30:22;;;;;;;11.82;1.85;;;;;;;12.21;100.00;99006.44;5011598;28;20033;-91
2022/10/30 10:33:22;;;;;;;10.20;2.40;;;;;;;12.26;100.00;99011.19;4978477;28;20033;-91
2022/10/30 10:35:51;;;;;;;15.85;2.67;;;;;;;12.27;100.00;99003.03;4994350;28;20031;-91
2022/10/30 10:38:39;;;;;;;10.38;1.63;;;;;;;12.30;100.00;99006.28;4994431;28;20041;-89
2022/10/30 10:41:27;;;;;;;12.88;1.83;;;;;;;12.33;100.00;99016.50;4996293;28;20042;-91
2022/10/30 10:44:31;;;;;;;14.65;2.30;;;;;;;12.28;100.00;99003.84;4992527;28;20041;-88
2022/10/30 10:47:49;;;;;;;11.13;1.55;;;;;;;12.28;100.00;99023.22;5006639;28;20022;-89
2022/10/30 10:50:29;;;;;;;12.43;1.92;;;;;;;12.33;100.00;99016.50;4997426;28;20196;-91
2022/10/30 10:53:13;;;;;;;15.90;2.72;;;;;;;12.37;100.00;99020.44;4995116;28;20033;-91
2022/10/30 10:55:48;;;;;;;15.18;3.05;;;;;;;12.39;100.00;99031.66;5006482;28;20038;-91
2022/10/30 10:58:35;;;;;;;12.32;2.15;;;;;;;12.38;100.00;99030.00;4994297;28;20070;-91
2022/10/30 11:01:05;;;;;;;16.70;7.85;;;;;;;12.44;100.00;99047.78;4991073;28;20030;-90
2022/10/30 11:04:04;;;;;;;10.35;4.22;;;;;;;12.46;100.00;99035.19;4977508;28;20046;-91
2022/10/30 11:06:35;;;;;;;10.88;2.50;;;;;;;12.45;100.00;99045.97;4970679;28;20038;-90
2022/10/30 11:09:23;;;;;;;10.90;1.40;;;;;;;12.49;100.00;99048.03;4990545;28;20048;-89
2022/10/30 11:11:54;;;;;;;10.45;1.33;;;;;;;12.53;100.00;99051.13;4974179;28;20053;-91
2022/10/30 11:14:29;;;;;;;10.27;2.58;;;;;;;12.55;100.00;99043.78;4987366;28;20052;-91
2022/10/30 11:17:32;;;;;;;11.43;1.58;;;;;;;12.56;100.00;99045.44;4976626;28;20065;-90
2022/10/30 11:20:16;;;;;;;4.43;0.93;;;;;;;12.56;100.00;99057.88;4973738;28;20032;-91
2022/10/30 11:22:50;;;;;;;12.17;2.97;;;;;;;12.56;100.00;99056.06;4990735;28;20048;-89
2022/10/30 11:25:24;;;;;;;12.32;5.28;;;;;;;12.61;100.00;99050.97;4992243;28;20041;-90
2022/10/30 11:27:56;;;;;;;8.83;1.97;;;;;;;12.63;100.00;99066.69;4976864;28;20036;-88
2022/10/30 11:30:28;;;;;;;11.52;2.10;;;;;;;12.76;100.00;99065.97;4973364;28;20042;-90
2022/10/30 11:32:58;;;;;;;12.15;1.48;;;;;;;12.99;100.00;99073.69;4989431;28;20098;-89
2022/10/30 11:35:26;;;;;;;9.77;1.80;;;;;;;13.12;100.00;99072.94;4994356;28;20037;-90
2022/10/30 11:38:17;;;;;;;11.57;1.45;;;;;;;13.18;100.00;99074.00;4958327;28;20034;-90
2022/10/30 11:40:52;;;;;;;8.00;1.15;;;;;;;13.18;100.00;99074.00;4987778;28;20034;-90
2022/10/30 11:43:25;;;;;;;10.85;1.50;;;;;;;13.12;100.00;99080.91;4958374;28;20038;-90
2022/10/30 11:45:55;;;;;;;9.73;2.28;;;;;;;13.06;100.00;99091.50;4978156;28;20060;-89
2022/10/30 11:48:29;;;;;;;7.43;1.58;;;;;;;12.97;100.00;99090.81;4990548;28;20183;-90
2022/10/30 11:51:02;;;;;;;7.93;1.40;;;;;;;12.89;100.00;99089.13;4965754;28;20038;-83
2022/10/30 11:53:37;;;;;;;8.65;1.10;;;;;;;12.84;100.00;99104.78;4979013;28;20030;-90
2022/10/30 11:56:18;;;;;;;23.08;1.88;;;;;;;12.86;100.00;99108.06;4992630;28;20041;-88